Hovedside
METAR-TAF:

METAR-TAF

Lufthavner :

Kristiansand lufthavn. Kjevik

Kristiansand, Norge

breddegrad: 58-12N, lengdegrad: 008-05E, høyde over havet: 1 m

Gjeldene værobservasjon

Denne rapporten ble laget for 30 minutter siden, klokken 08:20 UTC
Vind 8 kt fra Øst-nordøst
Temperatur -1°C
Luftfuktighet 80%
Trykk 1031 hPa
Sikt 10 km eller mer
Brutte skyer i en høyde av 2200 ft

METAR: ENCN 120820Z 06008KT 9999 BKN022 M01/M04 Q1031

Tid: 09:50 (08:50 UTC)

Varsel

Denne rapporten ble laget for 50 minutter siden, klokken 08:00 UTC
Varsel gyldig fra 12. klokken 09 UTC til 12. klokken 18 UTC
Vind 8 kt fra Nordøst
Sikt 10 km eller mer
Brutte skyer i en høyde av 2000 ft
Sannsynlighet 30% :
Midlertidig
fra 12. klokken 15 UTC til 12. klokken 18 UTC
Sikt: 4000 m
Brutte skyer i en høyde av 1200 ft
lett snø, regn

TAF: ENCN 120800Z 1209/1218 05008KT 9999 BKN020 PROB30 TEMPO 1215/1218 4000 -SNRA BKN012

Værobservasjoner og værvarsel for over 4000 flyplasser (METAR- og TAF-rapporter).

Tilgjengelige stasjoner er representert av de røde og gule prikkene på kartet.

Hold musepekeren over prikken for å se navnet på stasjonen.

Klikk så for å se værobservasjoner og -varsler.

For å forandre kartet kan du klikke på den grønne knappen med svart kryss for å zoome inn, på den grønne knappen med strek for å zoome ut, eller på de grønne pilene for å se tilstøtende kart.


METAR-TAF: